Nearby METAR Reports

 

KOKB - Oceanside, California, USA
Distance from station: W 1mi, 2km
Updated: Mon, 30-Jan-2023 2:52am PST
Overcast
Overcast
 Wind from E
Wind: E 3 mph , 6 km/h
Temperature: 48°F , 9°C
Dew Point: 46°F , 8°C
Humidity: 94%
Barometer: 29.92 inHg , 1013.2 hPa
Clouds: Overcast
Visibility: 10 miles , 16 km
Cloud details: Partly cloudy 2600 ft
Mostly cloudy 4800 ft
Overcast 6000 ft
2023/01/30 10:52 KOKB 301052Z AUTO 08003KT 10SM SCT026 BKN048 OVC060 09/08 A2992 RMK AO2 RAB16E42 SLP131 P0000 T00890078
KNFG - Camp Pendleton, California, USA
Distance from station: N 5mi, 8km
Updated: Mon, 30-Jan-2023 2:58am PST
Light rain, Mist, Overcast
Light rain, Mist, Overcast
 Wind from NNE
Wind: NNE 5 mph , 7 km/h
Temperature: 48°F , 9°C
Wind Chill: 46°F , 8°C
Dew Point: 46°F , 8°C
Humidity: 94%
Barometer: 29.93 inHg , 1013.5 hPa
Summary: Light rain, Mist
Clouds: Overcast
Visibility: 6 miles , 10 km
Cloud details: Partly cloudy 2400 ft
Mostly cloudy 2900 ft
Overcast 4900 ft
2023/01/30 10:58 KNFG 301058Z AUTO 03004KT 6SM -RA BR SCT024 BKN029 OVC049 09/08 A2993 RMK AO2 P0000 T00890078 $
 
KCRQ - Carlsbad, California, USA
Distance from station: SSE 6mi, 10km
Updated: Mon, 30-Jan-2023 2:53am PST
Light rain, Overcast
Light rain, Overcast
 Wind from ESE
Wind: ESE 5 mph , 7 km/h
Temperature: 48°F , 9°C
Wind Chill: 46°F , 8°C
Dew Point: 46°F , 8°C
Humidity: 94%
Barometer: 29.91 inHg , 1012.9 hPa
Summary: Light rain
Clouds: Overcast
Visibility: 9 miles , 14 km
Cloud details: Mostly cloudy 5000 ft
Overcast 6500 ft
2023/01/30 10:53 KCRQ 301053Z AUTO 11004KT 9SM -RA BKN050 OVC065 09/08 A2991 RMK AO2 RAE0956B37 SLP129 P0000 T00940083
KL18 - Fallbrook, California, USA
Distance from station: NNE 10mi, 17km
Updated: Mon, 30-Jan-2023 3:15am PST
Drizzle, Overcast
Drizzle, Overcast
 Wind from calm
Wind: Calm
Temperature: 45°F , 7°C
Dew Point: 45°F , 7°C
Humidity: 100%
Barometer: 29.92 inHg , 1013.2 hPa
Summary: Drizzle
Clouds: Overcast
Visibility: 10 miles , 16 km
Cloud details: Mostly cloudy 4200 ft
Overcast 4800 ft
2023/01/30 11:15 KL18 301115Z AUTO 00000KT 10SM DZ BKN042 OVC048 07/07 A2992 RMK AO2 P0001
 
KNKX - Miramar Nas/San, California, USA
Distance from station: SSE 26mi, 43km
Updated: Mon, 30-Jan-2023 2:55am PST
Overcast
Overcast
 Wind from ESE
Wind: ESE 3 mph , 6 km/h
Temperature: 45°F , 7°C
Dew Point: 45°F , 7°C
Humidity: 100%
Barometer: 29.92 inHg , 1013.2 hPa
Clouds: Overcast
Visibility: 10 miles , 16 km
Cloud details: Few Clouds 2000 ft
Mostly cloudy 6000 ft
Overcast 8500 ft
2023/01/30 10:55 KNKX 301055Z 11003KT 10SM FEW020 BKN060 OVC085 07/07 A2992 RMK AO2 SLP131 T00720072 $
KF70 - Murrieta/Temecul, California, USA
Distance from station: NNE 27mi, 43km
Updated: Mon, 30-Jan-2023 3:15am PST
Overcast
Overcast
 Wind from calm
Wind: Calm
Temperature: 43°F , 6°C
Dew Point: 43°F , 6°C
Humidity: 100%
Barometer: 29.92 inHg , 1013.2 hPa
Clouds: Overcast
Visibility: 10 miles , 16 km
Cloud details: Partly cloudy 1900 ft
Mostly cloudy 3000 ft
Overcast 8000 ft
2023/01/30 11:15 KF70 301115Z AUTO 00000KT 10SM SCT019 BKN030 OVC080 06/06 A2992 RMK AO2
 
KRNM - Ramona, California, USA
Distance from station: ESE 27mi, 43km
Updated: Mon, 30-Jan-2023 3:05am PST
Mostly cloudy
Mostly cloudy
 Wind from ENE
Wind: ENE 5 mph , 7 km/h
Temperature: 43°F , 6°C
Wind Chill: 40°F , 4°C
Dew Point: 39°F , 4°C
Humidity: 87%
Barometer: 29.91 inHg , 1012.9 hPa
Clouds: Mostly cloudy
Visibility: 10 miles , 16 km
Cloud details: Mostly cloudy 1600 ft
2023/01/30 11:05 KRNM 301105Z AUTO 06004KT 10SM BKN016 06/04 A2991 RMK AO2 T00560044
KMYF - San Diego/Mntgmy, California, USA
Distance from station: SSE 30mi, 48km
Updated: Mon, 30-Jan-2023 2:53am PST
Mostly cloudy
Mostly cloudy
 Wind from ESE
Wind: ESE 5 mph , 7 km/h
Temperature: 46°F , 8°C
Wind Chill: 44°F , 7°C
Dew Point: 45°F , 7°C
Humidity: 93%
Barometer: 29.93 inHg , 1013.5 hPa
Clouds: Mostly cloudy
Visibility: 10 miles , 16 km
Cloud details: Mostly cloudy 6000 ft
2023/01/30 10:53 KMYF 301053Z AUTO 12004KT 10SM BKN060 08/07 A2993 RMK AO2 SLP135 T00780072 $
 
KSAN - San Diego, California, USA
Distance from station: SSE 34mi, 55km
Updated: Mon, 30-Jan-2023 3:21am PST
Rain, Overcast
Rain, Overcast
 Wind from calm
Wind: Calm
Temperature: 52°F , 11°C
Dew Point: 46°F , 8°C
Humidity: 82%
Barometer: 29.95 inHg , 1014.2 hPa
Summary: Rain
Clouds: Overcast
Visibility: 4 miles , 6 km
Cloud details: Partly cloudy 1900 ft
Mostly cloudy 2400 ft
Overcast 5000 ft
2023/01/30 11:21 KSAN 301121Z 00000KT 4SM RA SCT019 BKN024 OVC050 11/08 A2995 RMK AO2 RAB1054 P0004 T01110083 $
KSEE - San Diego/Santee, California, USA
Distance from station: SE 34mi, 55km
Updated: Mon, 30-Jan-2023 3:15am PST
Mostly cloudy
Mostly cloudy
 Wind from calm
Wind: Calm
Temperature: 48°F , 9°C
Dew Point: 46°F , 8°C
Humidity: 94%
Barometer: 29.93 inHg , 1013.5 hPa
Clouds: Mostly cloudy
Visibility: 10 miles , 16 km
Cloud details: Partly cloudy 3500 ft
Partly cloudy 4000 ft
Mostly cloudy 7000 ft
2023/01/30 11:15 KSEE 301115Z AUTO 00000KT 10SM SCT035 SCT040 BKN070 09/08 A2993 RMK AO2
 
KNZY - North Island Nas, California, USA
Distance from station: S 36mi, 58km
Updated: Mon, 30-Jan-2023 2:52am PST
Overcast
Overcast
 Wind from E
Wind: E 6 mph , 9 km/h
Temperature: 52°F , 11°C
Dew Point: 46°F , 8°C
Humidity: 82%
Barometer: 29.93 inHg , 1013.5 hPa
Clouds: Overcast
Visibility: 9 miles , 14 km
Cloud details: Few Clouds 3400 ft
Overcast 6000 ft
2023/01/30 10:52 KNZY 301052Z AUTO 09005KT 9SM FEW034 OVC060 11/08 A2993 RMK AO2 SLP133 T01060083 $
KHMT - Hemet, California, USA
Distance from station: NNE 40mi, 65km
Updated: Mon, 30-Jan-2023 3:15am PST
Overcast
Overcast
 Wind from E
Wind: E 7 mph , 11 km/h
Temperature: 43°F , 6°C
Wind Chill: 39°F , 4°C
Barometer: 29.91 inHg , 1012.9 hPa
Clouds: Overcast
Visibility: 10 miles , 16 km
Cloud details: Mostly cloudy 3300 ft
Mostly cloudy 6000 ft
Overcast 9000 ft
2023/01/30 11:15 KHMT 301115Z AUTO 09006KT 10SM BKN033 BKN060 OVC090 06/ A2991 RMK AO2 T0062////
 
KSNA - Costa Mesa, California, USA
Distance from station: NW 44mi, 71km
Updated: Mon, 30-Jan-2023 3:21am PST
Light rain, Overcast
Light rain, Overcast
 Wind from calm
Wind: Calm
Temperature: 50°F , 10°C
Dew Point: 46°F , 8°C
Humidity: 88%
Barometer: 29.92 inHg , 1013.2 hPa
Summary: Light rain
Clouds: Overcast
Visibility: 10 miles , 16 km
Cloud details: Mostly cloudy 2100 ft
Mostly cloudy 3400 ft
Overcast 6000 ft
2023/01/30 11:21 KSNA 301121Z AUTO 00000KT 10SM -RA BKN021 BKN034 OVC060 10/08 A2992 RMK AO2 P0001 T01000083
KRIV - Riverside/March, California, USA
Distance from station: N 45mi, 73km
Updated: Mon, 30-Jan-2023 2:55am PST
Mostly cloudy
Mostly cloudy
 Wind from ESE
Wind: ESE 6 mph , 9 km/h
Temperature: 43°F , 6°C
Wind Chill: 39°F , 4°C
Dew Point: 43°F , 6°C
Humidity: 100%
Barometer: 29.90 inHg , 1012.5 hPa
Clouds: Mostly cloudy
Visibility: 10 miles , 16 km
Cloud details: Few Clouds 4100 ft
Mostly cloudy 8000 ft
2023/01/30 10:55 KRIV 301055Z 12005KT 10SM FEW041 BKN080 06/06 A2990 RMK AO2A SLP125 T00630062
 
KNRS - Imperial Beach, California, USA
Distance from station: SSE 46mi, 75km
Updated: Mon, 30-Jan-2023 3:23am PST
Rain, Mist, Overcast
Rain, Mist, Overcast
 Wind from varies
Wind: varies 3 mph , 6 km/h
Temperature: 50°F , 10°C
Dew Point: 46°F , 8°C
Humidity: 88%
Barometer: 29.94 inHg , 1013.9 hPa
Summary: Rain, Mist
Clouds: Overcast
Visibility: 3 miles , 5 km
Cloud details: Few Clouds 2200 ft
Mostly cloudy 2700 ft
Overcast 6000 ft
2023/01/30 11:23 KNRS 301123Z AUTO VRB03KT 3SM RA BR FEW022 BKN027 OVC060 10/08 A2994 RMK AO2 RAB10 P0009 T01000083
KSDM - San Diego/Brown, California, USA
Distance from station: SSE 48mi, 76km
Updated: Mon, 30-Jan-2023 2:53am PST
Mostly cloudy
Mostly cloudy
 Wind from SE
Wind: SE 6 mph , 9 km/h
Temperature: 48°F , 9°C
Wind Chill: 45°F , 7°C
Dew Point: 45°F , 7°C
Humidity: 87%
Barometer: 29.93 inHg , 1013.5 hPa
Clouds: Mostly cloudy
Visibility: 8 miles , 13 km
Cloud details: Few Clouds 1500 ft
Mostly cloudy 3700 ft
Mostly cloudy 4400 ft
2023/01/30 10:53 KSDM 301053Z AUTO 14005KT 8SM FEW015 BKN037 BKN044 09/07 A2993 RMK AO2 SLP133 T00940072
 
KAJO - Corona Muni, California, USA
Distance from station: NNW 50mi, 80km
Updated: Mon, 30-Jan-2023 2:56am PST
Overcast
Overcast
 Wind from ESE
Wind: ESE 5 mph , 7 km/h
Temperature: 46°F , 8°C
Wind Chill: 44°F , 7°C
Dew Point: 43°F , 6°C
Humidity: 87%
Barometer: 29.93 inHg , 1013.5 hPa
Clouds: Overcast
Visibility: 10 miles , 16 km
Cloud details: Mostly cloudy 4300 ft
Overcast 6500 ft
2023/01/30 10:56 KAJO 301056Z AUTO 11004KT 10SM BKN043 OVC065 08/06 A2993 RMK AO2 SLP134 T00830061